Time;durP1;ratioP1;P1;durP2;ratioP2;P2;SDS_P1;SDS_P2;PMS_P1;PMS_P2;Temp;Humidity;BMP_temperature;BMP_pressure;BME280_temperature;BME280_humidity;BME280_pressure;Samples;Min_cycle;Max_cycle;Signal;HPM_P1;HPM_P2
2021/04/27 02:47:36;;;;;;;13.50;12.13;;;6.40;88.60;;;;;;5298424;23;89178;-86
2021/04/27 02:50:03;;;;;;;13.02;11.73;;;6.40;89.30;;;;;;4907820;28;88041;-84
2021/04/27 02:52:29;;;;;;;13.25;11.45;;;6.30;89.70;;;;;;4908740;28;86885;-88
2021/04/27 02:54:56;;;;;;;12.98;11.73;;;6.30;89.90;;;;;;4900512;28;87220;-83
2021/04/27 02:57:21;;;;;;;12.13;11.02;;;6.30;89.60;;;;;;4907738;28;87579;-85
2021/04/27 02:59:47;;;;;;;12.55;11.35;;;6.20;89.80;;;;;;4900187;28;87192;-85
2021/04/27 03:02:13;;;;;;;12.07;10.95;;;6.20;90.30;;;;;;4912188;28;86539;-87
2021/04/27 03:04:38;;;;;;;11.30;10.20;;;6.20;90.50;;;;;;4914465;28;87900;-86
2021/04/27 03:07:04;;;;;;;13.52;12.15;;;6.20;90.50;;;;;;4912238;28;86413;-86
2021/04/27 03:09:30;;;;;;;14.55;13.25;;;6.10;90.80;;;;;;4911568;28;86944;-82
2021/04/27 03:11:55;;;;;;;14.68;13.18;;;6.10;91.10;;;;;;4911989;28;87042;-86
2021/04/27 03:14:21;;;;;;;14.32;12.90;;;6.10;91.20;;;;;;4925808;28;88278;-84
2021/04/27 03:16:47;;;;;;;14.77;13.38;;;6.00;91.70;;;;;;4927962;28;87948;-84
2021/04/27 03:19:12;;;;;;;20.85;19.00;;;6.00;91.90;;;;;;4912622;28;86773;-85
2021/04/27 03:21:38;;;;;;;23.73;22.02;;;5.90;92.10;;;;;;4913551;28;86810;-84
2021/04/27 03:24:04;;;;;;;23.15;21.48;;;5.90;92.10;;;;;;4913792;28;87220;-85
2021/04/27 03:26:30;;;;;;;20.25;18.85;;;5.90;92.10;;;;;;4919913;28;87064;-83
2021/04/27 03:28:55;;;;;;;21.02;19.23;;;5.90;92.40;;;;;;4916853;28;86660;-85
2021/04/27 03:31:21;;;;;;;17.30;15.80;;;5.90;92.60;;;;;;4919485;28;86186;-83
2021/04/27 03:33:48;;;;;;;16.88;15.60;;;5.80;92.70;;;;;;4924263;28;87691;-84
2021/04/27 03:36:14;;;;;;;15.65;12.80;;;5.80;92.70;;;;;;4927363;28;86960;-82
2021/04/27 03:38:40;;;;;;;14.32;12.85;;;5.80;92.80;;;;;;4920664;28;87957;-82
2021/04/27 03:41:05;;;;;;;14.43;12.88;;;5.80;92.90;;;;;;4920287;28;86925;-82
2021/04/27 03:43:31;;;;;;;13.82;12.63;;;5.70;93.20;;;;;;4918947;28;87735;-84
2021/04/27 03:45:57;;;;;;;15.02;13.43;;;5.70;93.10;;;;;;4893187;28;88520;-86
2021/04/27 03:48:24;;;;;;;13.38;12.07;;;5.80;93.60;;;;;;4908975;28;86858;-84
2021/04/27 03:50:50;;;;;;;13.90;12.20;;;5.70;93.40;;;;;;4909330;28;86809;-83
2021/04/27 03:53:16;;;;;;;14.57;12.98;;;5.80;93.30;;;;;;4896813;28;92280;-85
2021/04/27 03:55:42;;;;;;;16.13;14.45;;;5.70;93.30;;;;;;4922702;28;87505;-84
2021/04/27 03:58:08;;;;;;;13.75;12.55;;;5.80;93.50;;;;;;4921157;28;87075;-90
2021/04/27 04:00:34;;;;;;;13.00;11.80;;;5.80;93.20;;;;;;4923742;28;87027;-84
2021/04/27 04:03:01;;;;;;;13.18;11.88;;;5.80;93.40;;;;;;4915978;28;88368;-84
2021/04/27 04:05:27;;;;;;;12.45;11.32;;;5.80;93.50;;;;;;4913215;28;87183;-85
2021/04/27 04:07:52;;;;;;;12.18;11.00;;;5.80;93.30;;;;;;4922647;28;86884;-81
2021/04/27 04:10:19;;;;;;;13.10;11.80;;;5.70;93.50;;;;;;4937557;28;86922;-84
2021/04/27 04:12:45;;;;;;;13.80;12.50;;;;;;;;;;4930927;28;87736;-83
2021/04/27 04:15:17;;;;;;;14.80;12.93;;;5.70;93.40;;;;;;4929609;28;87409;-83
2021/04/27 04:17:44;;;;;;;15.32;13.85;;;5.70;93.50;;;;;;4926089;28;86163;-84
2021/04/27 04:20:22;;;;;;;17.15;15.70;;;5.70;93.90;;;;;;4930587;28;86378;-81
2021/04/27 04:22:48;;;;;;;20.40;18.63;;;5.70;93.50;;;;;;4921515;28;87832;-83
2021/04/27 04:25:15;;;;;;;17.33;15.73;;;5.80;93.00;;;;;;4917759;28;86914;-82
2021/04/27 04:27:41;;;;;;;23.88;21.63;;;5.70;93.20;;;;;;4928339;28;87958;-84
2021/04/27 04:30:27;;;;;;;23.80;21.67;;;5.80;93.30;;;;;;4924705;28;87043;-85
2021/04/27 04:32:54;;;;;;;23.75;21.65;;;5.90;93.30;;;;;;4930223;28;86964;-83
2021/04/27 04:35:22;;;;;;;18.48;17.08;;;5.90;92.90;;;;;;4923255;28;87117;-85
2021/04/27 04:37:48;;;;;;;15.32;13.80;;;;;;;;;;4928701;28;87217;-81
2021/04/27 04:40:15;;;;;;;14.88;13.05;;;6.00;92.70;;;;;;4926165;28;86935;-82
2021/04/27 04:42:42;;;;;;;14.95;12.57;;;6.00;92.90;;;;;;4926823;28;87051;-80
2021/04/27 04:45:09;;;;;;;16.27;13.80;;;6.10;92.80;;;;;;4914512;28;89251;-82
2021/04/27 04:47:35;;;;;;;15.88;14.38;;;6.10;92.60;;;;;;4929493;28;86960;-81
2021/04/27 04:50:02;;;;;;;15.20;13.80;;;6.20;92.50;;;;;;4914526;28;87007;-81
2021/04/27 04:52:28;;;;;;;15.40;13.88;;;6.30;92.20;;;;;;4927455;28;88026;-81
2021/04/27 04:54:53;;;;;;;17.50;15.80;;;6.40;91.90;;;;;;4928399;28;88008;-81
2021/04/27 04:57:20;;;;;;;22.23;20.77;;;6.50;91.70;;;;;;4922061;28;86955;-82
2021/04/27 04:59:46;;;;;;;34.47;32.17;;;6.50;91.30;;;;;;4934724;28;87047;-82
2021/04/27 05:02:11;;;;;;;39.58;37.17;;;6.60;91.10;;;;;;4926195;28;87224;-82
2021/04/27 05:04:37;;;;;;;43.13;40.42;;;6.70;91.20;;;;;;4926191;28;87177;-81
2021/04/27 05:07:06;;;;;;;36.05;33.85;;;6.70;90.90;;;;;;4921398;28;86722;-82
2021/04/27 05:09:32;;;;;;;30.35;28.13;;;6.80;90.60;;;;;;4925999;28;86353;-84
2021/04/27 05:11:59;;;;;;;34.38;32.22;;;6.80;90.50;;;;;;4915946;28;86911;-83
2021/04/27 05:14:42;;;;;;;37.42;35.15;;;6.90;90.20;;;;;;4923946;28;86809;-82
2021/04/27 05:17:08;;;;;;;40.58;38.15;;;7.00;90.10;;;;;;4926915;28;87757;-80
2021/04/27 05:19:39;;;;;;;39.83;37.53;;;7.00;89.60;;;;;;4926748;28;86998;-82
2021/04/27 05:22:06;;;;;;;;;;;7.10;89.30;;;;;;4926049;28;87386;-81
2021/04/27 05:24:33;;;;;;;25.20;23.38;;;7.20;89.00;;;;;;4922093;28;87061;-80
2021/04/27 05:26:59;;;;;;;38.10;35.85;;;7.30;88.40;;;;;;4923424;28;86947;-83
2021/04/27 05:29:25;;;;;;;45.72;43.15;;;7.30;88.40;;;;;;4917962;28;87405;-84
2021/04/27 05:31:52;;;;;;;59.45;56.45;;;7.40;87.60;;;;;;4923427;28;87556;-83
2021/04/27 05:34:20;;;;;;;61.33;57.80;;;7.50;86.90;;;;;;4925814;28;87406;-82
2021/04/27 05:36:47;;;;;;;49.58;46.65;;;7.50;87.30;;;;;;4909421;28;86983;-84
2021/04/27 05:39:13;;;;;;;51.55;48.60;;;7.60;87.10;;;;;;4924803;28;87110;-82
2021/04/27 05:41:40;;;;;;;43.80;41.30;;;7.70;87.60;;;;;;4924000;28;87640;-79
2021/04/27 05:44:10;;;;;;;33.53;31.33;;;7.80;87.90;;;;;;4922818;28;90141;-82
2021/04/27 05:46:35;;;;;;;27.88;25.88;;;7.80;87.90;;;;;;4917347;28;86849;-84
2021/04/27 05:49:02;;;;;;;25.80;23.95;;;7.90;87.20;;;;;;4923290;28;86848;-87
2021/04/27 05:51:28;;;;;;;27.38;25.33;;;8.00;87.80;;;;;;4922291;28;87428;-80
2021/04/27 05:53:53;;;;;;;25.08;23.27;;;8.10;87.70;;;;;;4909285;28;87308;-82
2021/04/27 05:56:19;;;;;;;20.23;18.50;;;8.20;87.10;;;;;;4917642;28;87162;-82
2021/04/27 05:58:45;;;;;;;16.48;14.90;;;8.30;86.30;;;;;;4918669;28;86137;-83
2021/04/27 06:01:13;;;;;;;12.75;11.65;;;8.40;85.90;;;;;;4924001;28;88137;-80
2021/04/27 06:03:38;;;;;;;17.92;16.25;;;8.50;85.80;;;;;;4917082;28;86806;-81
2021/04/27 06:06:05;;;;;;;26.42;24.80;;;8.60;85.30;;;;;;4922187;28;87662;-81
2021/04/27 06:08:30;;;;;;;29.95;28.02;;;8.70;84.80;;;;;;4926443;28;88257;-82
2021/04/27 06:10:57;;;;;;;21.08;19.55;;;8.70;84.40;;;;;;4916537;28;86623;-82
2021/04/27 06:13:22;;;;;;;15.90;14.70;;;8.80;84.00;;;;;;4916100;28;86838;-82
2021/04/27 06:15:48;;;;;;;19.65;18.10;;;8.80;81.80;;;;;;4923058;28;87551;-83
2021/04/27 06:18:14;;;;;;;19.63;17.05;;;8.90;81.90;;;;;;4926688;28;87045;-79
2021/04/27 06:20:42;;;;;;;14.88;13.73;;;9.00;81.60;;;;;;4925401;28;87097;-81
2021/04/27 06:23:08;;;;;;;18.70;17.30;;;9.10;79.90;;;;;;4924291;28;88245;-80
2021/04/27 06:25:33;;;;;;;19.23;17.98;;;9.10;79.30;;;;;;4912769;28;86894;-81
2021/04/27 06:28:02;;;;;;;18.50;17.27;;;9.00;90.00;;;;;;4927496;28;86921;-83
2021/04/27 06:30:27;;;;;;;19.58;18.17;;;9.30;78.90;;;;;;4914220;28;88799;-80
2021/04/27 06:32:54;;;;;;;14.55;13.25;;;9.40;77.00;;;;;;4926781;28;87437;-81
2021/04/27 06:35:25;;;;;;;19.08;17.42;;;9.50;76.30;;;;;;4919537;28;87080;-81
2021/04/27 06:37:51;;;;;;;30.70;28.90;;;9.60;76.10;;;;;;4921301;28;86845;-81
2021/04/27 06:40:16;;;;;;;27.40;25.40;;;9.70;74.20;;;;;;4924853;28;87341;-81
2021/04/27 06:42:42;;;;;;;23.92;22.42;;;9.70;74.30;;;;;;4925032;28;86845;-79
2021/04/27 06:45:09;;;;;;;26.42;24.88;;;9.80;74.40;;;;;;4898247;28;87200;-82
2021/04/27 06:47:34;;;;;;;30.83;28.95;;;9.90;73.00;;;;;;4914688;28;87438;-82
2021/04/27 06:50:00;;;;;;;26.60;24.80;;;10.00;72.40;;;;;;4905984;28;87191;-81
2021/04/27 06:52:26;;;;;;;28.25;26.58;;;10.10;71.50;;;;;;4924772;28;87887;-85
2021/04/27 06:54:52;;;;;;;21.63;20.23;;;10.10;73.30;;;;;;4925854;28;87902;-83
2021/04/27 06:57:17;;;;;;;17.67;16.45;;;10.20;70.90;;;;;;4925549;28;86933;-83
2021/04/27 06:59:43;;;;;;;20.70;19.10;;;10.20;70.70;;;;;;4923828;28;87905;-84
2021/04/27 07:02:10;;;;;;;20.25;18.75;;;10.20;71.50;;;;;;4915816;28;87171;-83
2021/04/27 07:04:36;;;;;;;20.83;19.38;;;10.30;72.20;;;;;;4924782;28;88451;-83
2021/04/27 07:07:05;;;;;;;18.98;17.67;;;10.40;72.90;;;;;;4920556;28;86945;-85
2021/04/27 07:09:31;;;;;;;13.98;12.98;;;10.50;71.60;;;;;;4913879;28;86778;-85
2021/04/27 07:11:57;;;;;;;14.30;13.18;;;10.60;69.40;;;;;;4916158;28;86346;-83
2021/04/27 07:14:23;;;;;;;14.02;12.95;;;10.70;68.70;;;;;;4925674;28;87360;-82
2021/04/27 07:16:49;;;;;;;12.88;11.68;;;10.80;69.10;;;;;;4922671;28;86848;-81
2021/04/27 07:19:15;;;;;;;15.20;13.90;;;11.00;69.10;;;;;;4925154;28;87714;-81
2021/04/27 07:21:42;;;;;;;17.10;16.00;;;;;;;;;;4924306;28;88766;-80
2021/04/27 07:24:08;;;;;;;24.75;22.88;;;11.10;67.90;;;;;;4907771;28;86895;-82
2021/04/27 07:26:36;;;;;;;52.22;49.63;;;11.20;67.90;;;;;;4913775;28;87018;-80
2021/04/27 07:29:02;;;;;;;63.63;60.30;;;11.40;66.20;;;;;;4921484;28;88153;-82
2021/04/27 07:31:28;;;;;;;36.03;34.05;;;11.60;66.70;;;;;;4926247;28;86965;-82
2021/04/27 07:33:53;;;;;;;16.77;15.55;;;11.80;65.90;;;;;;4932639;28;86912;-82
2021/04/27 07:36:20;;;;;;;17.92;16.58;;;12.40;77.80;;;;;;4939424;28;86231;-80
2021/04/27 07:38:46;;;;;;;18.60;17.13;;;12.40;63.50;;;;;;4925840;28;87285;-82
2021/04/27 07:41:12;;;;;;;20.77;19.35;;;12.70;62.10;;;;;;4932425;28;86436;-81
2021/04/27 07:43:38;;;;;;;22.30;20.80;;;13.10;61.70;;;;;;4944127;28;87844;-81
2021/04/27 07:46:04;;;;;;;15.20;14.02;;;14.80;55.80;;;;;;4947363;28;86904;-81
2021/04/27 07:48:30;;;;;;;22.52;21.02;;;14.80;56.50;;;;;;4948622;28;87096;-82
2021/04/27 07:50:55;;;;;;;23.08;21.48;;;16.40;54.20;;;;;;4933171;28;86836;-83
2021/04/27 07:53:21;;;;;;;22.52;21.33;;;18.30;49.30;;;;;;4937916;28;86379;-83
2021/04/27 07:55:47;;;;;;;20.90;19.67;;;20.20;46.40;;;;;;4944489;28;86242;-84
2021/04/27 07:58:13;;;;;;;13.65;12.65;;;21.80;41.90;;;;;;4948629;28;86541;-86
2021/04/27 08:00:39;;;;;;;16.35;15.15;;;23.10;38.30;;;;;;4951068;28;86901;-84
2021/04/27 08:03:05;;;;;;;25.92;24.30;;;23.80;37.00;;;;;;4950849;28;85956;-86
2021/04/27 08:05:32;;;;;;;31.35;29.67;;;24.90;35.10;;;;;;4950179;28;86350;-85
2021/04/27 08:07:58;;;;;;;49.25;46.75;;;25.50;33.80;;;;;;4946916;28;88175;-84
2021/04/27 08:10:24;;;;;;;53.08;50.20;;;26.10;32.80;;;;;;4953288;28;87418;-82
2021/04/27 08:12:51;;;;;;;26.15;24.58;;;26.50;32.50;;;;;;4951006;28;86117;-86
2021/04/27 08:15:24;;;;;;;18.77;17.27;;;27.20;30.90;;;;;;4951086;28;86340;-86
2021/04/27 08:17:50;;;;;;;24.48;22.95;;;27.30;30.80;;;;;;4950539;28;86523;-85
2021/04/27 08:20:16;;;;;;;51.70;49.15;;;27.90;30.60;;;;;;4950174;28;87425;-89
2021/04/27 08:22:44;;;;;;;104.30;99.85;;;28.60;29.80;;;;;;4950742;28;86149;-85
2021/04/27 08:25:10;;;;;;;154.85;147.90;;;29.10;28.90;;;;;;4950687;28;85515;-82
2021/04/27 08:27:36;;;;;;;114.22;109.45;;;29.10;29.30;;;;;;4951874;28;87282;-82
2021/04/27 08:30:25;;;;;;;58.92;56.15;;;30.50;28.10;;;;;;4951403;28;86462;-82
2021/04/27 08:33:03;;;;;;;44.80;42.65;;;30.90;27.50;;;;;;4932834;28;89023;-85
2021/04/27 08:35:29;;;;;;;103.95;99.45;;;31.00;27.60;;;;;;4948909;28;86233;-81
2021/04/27 08:37:55;;;;;;;102.60;98.10;;;30.80;27.80;;;;;;4952421;28;86530;-83
2021/04/27 08:40:21;;;;;;;21.67;20.27;;;31.70;27.20;;;;;;4948059;28;86886;-83
2021/04/27 08:42:48;;;;;;;81.88;78.13;;;32.20;26.80;;;;;;4942534;28;86588;-83
2021/04/27 08:45:15;;;;;;;170.60;163.43;;;31.90;26.00;;;;;;4948379;28;86310;-86
2021/04/27 08:47:41;;;;;;;212.95;203.88;;;31.80;26.20;;;;;;4941987;28;87183;-84
2021/04/27 08:50:09;;;;;;;113.15;108.32;;;32.30;26.40;;;;;;4950070;28;87515;-90
2021/04/27 08:52:35;;;;;;;44.28;41.97;;;33.20;25.70;;;;;;4941968;28;88512;-91
2021/04/27 08:55:00;;;;;;;65.68;62.60;;;32.20;25.90;;;;;;4949616;28;87606;-87
2021/04/27 08:57:26;;;;;;;66.90;63.65;;;32.80;25.60;;;;;;4940705;28;88125;-84
2021/04/27 08:59:52;;;;;;;86.88;83.07;;;33.40;25.30;;;;;;4941758;28;87213;-82
2021/04/27 09:02:29;;;;;;;76.47;73.15;;;33.90;24.90;;;;;;4941466;28;86992;-83
2021/04/27 09:04:55;;;;;;;183.02;175.70;;;34.20;24.60;;;;;;4930098;28;86524;-83
2021/04/27 09:07:22;;;;;;;134.98;129.25;;;34.00;25.10;;;;;;4942646;28;87065;-86
2021/04/27 09:09:53;;;;;;;118.05;112.90;;;34.60;24.80;;;;;;4921388;28;87389;-82
2021/04/27 09:12:28;;;;;;;93.32;89.45;;;36.30;23.30;;;;;;4928732;28;87028;-82
2021/04/27 09:14:55;;;;;;;66.43;63.33;;;36.30;23.70;;;;;;4930732;28;86174;-82
2021/04/27 09:17:30;;;;;;;33.53;31.65;;;37.20;23.90;;;;;;4930283;28;87220;-81
2021/04/27 09:19:58;;;;;;;28.95;27.40;;;37.50;23.70;;;;;;4921518;28;88041;-82
2021/04/27 09:22:26;;;;;;;51.65;49.15;;;37.70;23.40;;;;;;4927516;28;88378;-82
2021/04/27 09:25:01;;;;;;;49.20;46.70;;;37.90;23.60;;;;;;4925597;28;86751;-82
2021/04/27 09:27:34;;;;;;;45.88;43.60;;;38.30;23.40;;;;;;4929255;28;87289;-85
2021/04/27 09:30:20;;;;;;;26.52;25.15;;;38.90;23.20;;;;;;4928376;28;87291;-82
2021/04/27 09:33:07;;;;;;;31.50;29.80;;;38.60;22.80;;;;;;4928087;28;86681;-82
2021/04/27 09:35:39;;;;;;;46.25;44.22;;;38.10;22.60;;;;;;4941790;28;87405;-82
2021/04/27 09:38:30;;;;;;;59.17;56.58;;;38.20;23.00;;;;;;4913276;28;88351;-82
2021/04/27 09:41:05;;;;;;;52.40;49.85;;;38.40;22.90;;;;;;4923907;28;87095;-82
2021/04/27 09:43:39;;;;;;;89.20;85.35;;;38.40;23.00;;;;;;4922344;28;86954;-82
2021/04/27 09:46:08;;;;;;;136.48;130.60;;;37.90;22.70;;;;;;4909279;28;86959;-80
2021/04/27 09:48:36;;;;;;;136.00;130.20;;;37.80;23.00;;;;;;4921423;28;87923;-82
2021/04/27 09:51:14;;;;;;;155.77;149.03;;;38.70;22.50;;;;;;4923498;28;87188;-84
2021/04/27 09:53:52;;;;;;;130.38;124.78;;;38.60;22.60;;;;;;4924121;28;86805;-81
2021/04/27 09:56:36;;;;;;;75.53;71.95;;;39.20;22.50;;;;;;4909465;28;86953;-83
2021/04/27 09:59:05;;;;;;;88.57;84.38;;;40.10;22.40;;;;;;4929227;28;88218;-80
2021/04/27 10:01:31;;;;;;;67.43;64.43;;;39.20;22.50;;;;;;4918807;28;87087;-83
2021/04/27 10:03:58;;;;;;;59.15;56.38;;;38.90;22.60;;;;;;4932161;28;87001;-81
2021/04/27 10:06:25;;;;;;;35.97;34.17;;;38.50;22.10;;;;;;4924626;28;86151;-81
2021/04/27 10:08:51;;;;;;;29.55;28.05;;;38.40;22.50;;;;;;4928914;28;87232;-84
2021/04/27 10:11:18;;;;;;;45.88;43.67;;;37.30;22.90;;;;;;4927701;28;87074;-81
2021/04/27 10:13:44;;;;;;;52.33;49.83;;;37.10;23.10;;;;;;4937059;28;89216;-80
2021/04/27 10:16:10;;;;;;;71.75;68.57;;;36.70;23.30;;;;;;4939877;28;87090;-81
2021/04/27 10:18:36;;;;;;;53.42;50.70;;;;;;;;;;4931454;28;87705;-83
2021/04/27 10:21:05;;;;;;;71.68;67.90;;;34.60;23.50;;;;;;4913936;28;86946;-84
2021/04/27 10:23:31;;;;;;;90.05;85.95;;;33.50;24.10;;;;;;4923837;28;86572;-83
2021/04/27 10:25:57;;;;;;;72.05;68.50;;;32.70;24.50;;;;;;4904460;28;87129;-82
2021/04/27 10:28:23;;;;;;;133.65;127.72;;;;;;;;;;4907406;28;87433;-83
2021/04/27 10:30:49;;;;;;;140.95;134.77;;;31.90;24.50;;;;;;4926724;28;87031;-83
2021/04/27 10:33:16;;;;;;;63.70;60.55;;;31.00;25.10;;;;;;4917157;28;86882;-82
2021/04/27 10:36:01;;;;;;;81.25;77.53;;;30.70;25.30;;;;;;4923162;28;87062;-82
2021/04/27 10:38:47;;;;;;;124.55;119.05;;;30.30;25.10;;;;;;4922161;28;87908;-85
2021/04/27 10:41:16;;;;;;;91.43;87.05;;;30.30;25.40;;;;;;4919183;28;87132;-83
2021/04/27 10:43:51;;;;;;;57.28;54.58;;;30.90;25.50;;;;;;4925496;28;86995;-83
2021/04/27 10:46:17;;;;;;;73.05;69.43;;;34.20;23.80;;;;;;4918595;28;87164;-81
2021/04/27 10:48:44;;;;;;;149.55;143.15;;;34.40;24.30;;;;;;4926814;28;87329;-82
2021/04/27 10:51:23;;;;;;;208.43;199.60;;;34.30;24.10;;;;;;4913243;28;87290;-81
2021/04/27 10:54:20;;;;;;;108.35;103.57;;;34.70;24.10;;;;;;4916025;28;86943;-84
2021/04/27 10:56:53;;;;;;;187.02;179.30;;;35.30;23.80;;;;;;4920457;28;86254;-81
2021/04/27 10:59:21;;;;;;;45.50;43.20;;;36.20;24.40;;;;;;4918233;28;87701;-81
2021/04/27 11:02:05;;;;;;;39.58;37.47;;;37.30;23.30;;;;;;4916209;28;87101;-84
2021/04/27 11:04:37;;;;;;;42.45;40.33;;;37.90;23.50;;;;;;4924172;28;87967;-84
2021/04/27 11:07:23;;;;;;;55.03;52.10;;;39.20;23.50;;;;;;4916168;28;86849;-82
2021/04/27 11:09:58;;;;;;;83.93;80.22;;;39.90;22.60;;;;;;4923259;28;87397;-83
2021/04/27 11:12:44;;;;;;;81.63;77.85;;;40.40;22.50;;;;;;4924215;28;87751;-83
2021/04/27 11:15:22;;;;;;;77.60;74.15;;;40.10;22.40;;;;;;4926311;28;86903;-84
2021/04/27 11:18:18;;;;;;;70.10;66.82;;;40.60;22.70;;;;;;4939765;28;86735;-84
2021/04/27 11:20:48;;;;;;;44.50;42.33;;;41.10;22.00;;;;;;4923415;28;87289;-84
2021/04/27 11:23:52;;;;;;;56.08;53.45;;;41.10;22.80;;;;;;4929801;28;88083;-83
2021/04/27 11:26:32;;;;;;;103.50;99.10;;;41.00;22.30;;;;;;4930851;28;86856;-84
2021/04/27 11:29:16;;;;;;;90.13;86.38;;;40.50;22.00;;;;;;4929029;28;86596;-85
2021/04/27 11:32:05;;;;;;;89.13;85.18;;;40.10;22.00;;;;;;4928397;28;88720;-84
2021/04/27 11:34:46;;;;;;;75.75;72.45;;;39.80;22.60;;;;;;4934300;28;87191;-84
2021/04/27 11:37:20;;;;;;;104.00;99.75;;;40.20;23.10;;;;;;4924488;28;87126;-84
2021/04/27 11:39:45;;;;;;;89.13;85.07;;;40.60;22.70;;;;;;4922100;28;87475;-84
2021/04/27 11:42:11;;;;;;;131.43;125.95;;;40.70;22.10;;;;;;4923130;28;87472;-84
2021/04/27 11:44:41;;;;;;;101.70;97.28;;;40.80;22.00;;;;;;4922873;28;87148;-85
2021/04/27 11:47:17;;;;;;;161.02;154.45;;;39.80;22.30;;;;;;4914261;28;87156;-84
2021/04/27 11:50:00;;;;;;;166.00;159.07;;;40.00;22.30;;;;;;4948705;28;86102;-84
2021/04/27 11:52:48;;;;;;;150.45;144.07;;;40.30;22.70;;;;;;4956481;28;86832;-84
2021/04/27 11:55:45;;;;;;;139.77;133.95;;;40.30;22.40;;;;;;4955831;28;87614;-84
2021/04/27 11:58:15;;;;;;;78.15;74.65;;;40.60;22.30;;;;;;4943145;28;87889;-84
2021/04/27 12:01:03;;;;;;;74.95;71.30;;;40.10;22.80;;;;;;4945288;28;86474;-84
2021/04/27 12:03:35;;;;;;;61.08;58.20;;;40.20;23.00;;;;;;4949476;28;87499;-83
2021/04/27 12:06:17;;;;;;;51.67;49.17;;;40.90;22.00;;;;;;4949999;28;87411;-87
2021/04/27 12:08:44;;;;;;;53.28;50.50;;;41.20;22.30;;;;;;4938396;28;86715;-84
2021/04/27 12:11:16;;;;;;;31.08;29.48;;;41.20;22.30;;;;;;4951362;28;87146;-84
2021/04/27 12:13:43;;;;;;;31.13;29.48;;;41.60;22.50;;;;;;4946773;28;86955;-85
2021/04/27 12:16:20;;;;;;;39.60;37.60;;;41.70;22.40;;;;;;4948357;28;88021;-84
2021/04/27 12:19:04;;;;;;;57.08;54.38;;;41.80;22.20;;;;;;4929982;28;86998;-83
2021/04/27 12:21:33;;;;;;;50.22;48.03;;;42.00;21.70;;;;;;4949009;28;86654;-85
2021/04/27 12:24:46;;;;;;;45.67;43.30;;;41.90;22.10;;;;;;4946850;28;88201;-86
2021/04/27 12:27:19;;;;;;;94.80;90.53;;;42.20;22.50;;;;;;4922359;28;87204;-86
2021/04/27 12:30:08;;;;;;;187.73;179.98;;;42.10;22.00;;;;;;4929893;28;86887;-85
2021/04/27 12:33:05;;;;;;;171.40;164.30;;;42.20;22.00;;;;;;4929541;28;86424;-85
2021/04/27 12:35:34;;;;;;;192.50;184.52;;;41.70;21.30;;;;;;4934020;28;87240;-86
2021/04/27 12:38:08;;;;;;;175.70;168.38;;;41.00;22.10;;;;;;4946216;28;86936;-85
2021/04/27 12:40:38;;;;;;;204.23;195.30;;;40.10;22.20;;;;;;4946395;28;86851;-85
2021/04/27 12:43:08;;;;;;;237.73;227.88;;;40.50;22.20;;;;;;4966242;28;86129;-85
2021/04/27 12:45:51;;;;;;;281.38;269.63;;;40.80;22.80;;;;;;4967049;28;87205;-85
2021/04/27 12:48:19;;;;;;;249.32;238.57;;;40.80;23.10;;;;;;4943482;28;87787;-85
2021/04/27 12:50:57;;;;;;;285.50;273.88;;;40.40;22.80;;;;;;4945298;28;87880;-84
2021/04/27 12:53:34;;;;;;;245.18;234.57;;;40.30;23.10;;;;;;4964786;28;87212;-84
2021/04/27 12:56:11;;;;;;;245.43;235.18;;;40.00;22.40;;;;;;4949381;28;87344;-85
2021/04/27 12:58:37;;;;;;;251.93;240.98;;;40.00;22.90;;;;;;4944670;28;87114;-84
2021/04/27 13:01:05;;;;;;;247.25;236.40;;;39.80;22.80;;;;;;4929447;28;87016;-85
2021/04/27 13:03:34;;;;;;;257.25;246.20;;;39.50;23.10;;;;;;4936424;28;86968;-84
2021/04/27 13:06:22;;;;;;;260.33;249.13;;;39.40;23.10;;;;;;4952421;28;88837;-84
2021/04/27 13:09:12;;;;;;;286.03;273.97;;;39.00;22.90;;;;;;4944071;28;87151;-84
2021/04/27 13:11:40;;;;;;;232.38;222.43;;;38.70;23.40;;;;;;4926754;28;86737;-84
2021/04/27 13:14:19;;;;;;;218.45;209.23;;;38.40;23.60;;;;;;4938725;28;86873;-84
2021/04/27 13:16:44;;;;;;;;;;;38.50;23.70;;;;;;4942395;28;88219;-84
2021/04/27 13:19:10;;;;;;;190.85;182.20;;;38.20;23.70;;;;;;4946545;28;87829;-85
2021/04/27 13:21:43;;;;;;;209.93;200.88;;;37.60;23.80;;;;;;4945578;28;86754;-85
2021/04/27 13:24:12;;;;;;;234.13;224.20;;;37.70;23.80;;;;;;4944913;28;86796;-85
2021/04/27 13:26:38;;;;;;;164.98;157.57;;;37.60;23.90;;;;;;4939721;28;87688;-85
2021/04/27 13:29:05;;;;;;;204.32;195.75;;;37.40;24.40;;;;;;4939298;28;88420;-86
2021/04/27 13:31:31;;;;;;;180.07;172.13;;;37.00;23.90;;;;;;4948904;28;87135;-86
2021/04/27 13:33:58;;;;;;;192.50;184.25;;;36.70;23.90;;;;;;4933548;28;86101;-86
2021/04/27 13:36:24;;;;;;;205.95;197.48;;;36.60;24.00;;;;;;4939194;28;88364;-86
2021/04/27 13:38:51;;;;;;;209.20;200.43;;;36.40;24.10;;;;;;4950000;28;87175;-85
2021/04/27 13:41:17;;;;;;;188.38;179.98;;;36.40;24.30;;;;;;4949482;28;87872;-85
2021/04/27 13:43:48;;;;;;;191.80;183.68;;;36.10;24.50;;;;;;4944728;28;87445;-84
2021/04/27 13:46:18;;;;;;;57.38;54.42;;;35.50;24.40;;;;;;4940669;28;87083;-83
2021/04/27 13:48:47;;;;;;;54.63;51.75;;;35.50;24.70;;;;;;4938350;28;87872;-84
2021/04/27 13:51:15;;;;;;;41.42;39.22;;;35.20;24.70;;;;;;4942778;28;86964;-85
2021/04/27 13:53:41;;;;;;;42.65;40.45;;;34.90;25.20;;;;;;4943954;28;86926;-85
2021/04/27 13:56:10;;;;;;;52.40;49.75;;;34.80;25.20;;;;;;4947472;28;87667;-85
2021/04/27 13:58:36;;;;;;;50.10;47.50;;;34.60;25.50;;;;;;4962231;28;87047;-83
2021/04/27 14:01:03;;;;;;;45.63;43.25;;;34.40;25.30;;;;;;4950852;28;87028;-83
2021/04/27 14:03:29;;;;;;;45.85;43.25;;;34.40;25.50;;;;;;4947876;28;86747;-82
2021/04/27 14:05:54;;;;;;;46.67;44.00;;;34.50;25.50;;;;;;4937224;28;87908;-85
2021/04/27 14:08:21;;;;;;;44.55;42.13;;;34.20;25.80;;;;;;4931194;28;88555;-84
2021/04/27 14:10:49;;;;;;;59.70;56.72;;;34.20;25.50;;;;;;4949751;28;86743;-82
2021/04/27 14:13:15;;;;;;;38.28;35.53;;;33.90;26.10;;;;;;4948998;28;86939;-85
2021/04/27 14:15:43;;;;;;;48.28;45.67;;;33.50;25.40;;;;;;4941041;28;87167;-82
2021/04/27 14:18:10;;;;;;;45.55;42.95;;;33.30;26.40;;;;;;4946663;28;87027;-83
2021/04/27 14:20:37;;;;;;;44.95;42.35;;;33.20;26.10;;;;;;4942217;28;86907;-85
2021/04/27 14:23:04;;;;;;;44.58;41.67;;;33.00;25.90;;;;;;4949355;28;85847;-83
2021/04/27 14:25:31;;;;;;;40.88;38.60;;;32.70;27.00;;;;;;4953073;28;87332;-82
2021/04/27 14:27:57;;;;;;;41.35;39.05;;;32.10;26.00;;;;;;4958970;28;87162;-82
2021/04/27 14:30:23;;;;;;;94.28;89.80;;;31.70;26.60;;;;;;4953448;28;87761;-81
2021/04/27 14:32:54;;;;;;;73.10;69.35;;;31.40;27.00;;;;;;4954838;28;86879;-85
2021/04/27 14:35:24;;;;;;;76.70;72.80;;;31.20;27.00;;;;;;4938366;28;88597;-82
2021/04/27 14:37:50;;;;;;;59.10;55.80;;;30.70;27.40;;;;;;4943993;28;87599;-84
2021/04/27 14:40:18;;;;;;;80.28;76.22;;;30.40;27.90;;;;;;4944706;28;86954;-82
2021/04/27 14:42:44;;;;;;;64.00;60.40;;;30.00;28.50;;;;;;4935443;28;87017;-82
2021/04/27 14:45:14;;;;;;;49.00;46.28;;;29.70;28.50;;;;;;4941202;28;89156;-82
2021/04/27 14:47:41;;;;;;;49.42;46.60;;;29.60;28.70;;;;;;4943132;28;87191;-81
2021/04/27 14:50:08;;;;;;;51.42;48.75;;;29.50;28.50;;;;;;4936695;28;86797;-81
2021/04/27 14:52:33;;;;;;;70.82;67.22;;;29.60;28.40;;;;;;4938213;28;87171;-81
2021/04/27 14:54:59;;;;;;;78.28;74.28;;;29.60;28.90;;;;;;4922738;28;91350;-81
2021/04/27 14:57:25;;;;;;;127.97;122.22;;;29.30;28.90;;;;;;4942686;28;87962;-82
2021/04/27 14:59:51;;;;;;;163.30;156.13;;;29.10;29.50;;;;;;4928106;28;87508;-82
2021/04/27 15:02:18;;;;;;;217.93;208.15;;;28.90;29.10;;;;;;4939409;28;87520;-81
2021/04/27 15:04:44;;;;;;;236.23;225.85;;;28.90;29.60;;;;;;4930262;28;87837;-82
2021/04/27 15:07:10;;;;;;;230.45;220.40;;;28.70;29.50;;;;;;4942461;28;87022;-81
2021/04/27 15:09:35;;;;;;;233.27;222.38;;;28.70;28.90;;;;;;4942310;28;86936;-81
2021/04/27 15:12:01;;;;;;;236.48;225.48;;;28.70;29.20;;;;;;4936221;28;87381;-82
2021/04/27 15:14:27;;;;;;;202.25;192.00;;;28.70;29.10;;;;;;4936561;28;87065;-80
2021/04/27 15:16:54;;;;;;;151.23;143.13;;;28.40;29.40;;;;;;4932275;28;86893;-80
2021/04/27 15:19:20;;;;;;;136.15;129.15;;;28.20;29.70;;;;;;4951027;28;88133;-82
2021/04/27 15:21:46;;;;;;;119.93;113.97;;;27.80;29.40;;;;;;4935507;28;86972;-79
2021/04/27 15:24:12;;;;;;;114.30;108.80;;;27.70;29.90;;;;;;4939155;28;87177;-79
2021/04/27 15:26:39;;;;;;;119.35;113.57;;;27.30;29.60;;;;;;4941203;28;87593;-81